Misión y Visión

La misión es proporcionar información fiable a la navegación aérea, contribuyendo a la seguridad, regularidad y eficiencia de la Navegación Aérea Internacional

La visión es contribuir sustancialmente al desarrollo de conocimientos y a la utilización de la meteorología aeronáutica a nivel nacional e internacional, mediante la innovación y la coparticipación con sectores sociales y productivos de la sociedad.

 
  Inicio
  Metar
  Taf
  Wintemp
  SIGMET
  Avisos
  Pronósticos
  Carpeta Meteorologica
  Imágenes Satelitales
  Climatología Aeronáutica
   
  ¿Quienes Somos?
  Contacto
  Eventos
Taf

 

IMÁGENES DEL AEROPUERTO
(EN CONSTRUCCION)

 

PRONOSTICO DE AERÓDROMO
TAF / PROYECCION CLIMATICA
MES DE JULIO

 

AEROPUERTO ENRIQUE MALEK:

TAF MPSM 262230Z 2700/2806 33006KT 9999 SCT015 BECMG 2704/2708 00000KT SCT018 SCT100 BECMG 2714/2718 34010KT SCT020=


TAF:

TAF MPDA 261700Z 2618/2706 18008KT 9999 FEW018 SCT100 BECMG 2620/2624 7000 -TSRA FEW015CB BECMG 2702/2706 21006KT SCT018=

 

AEROPUERTO PANAMA PACIFICO:

hola



TAF:



AEROPUERTO MARCOS A. GELABERT:



TAF:

TAF MPMG 261700Z 2618/2706 33008KT 9999 SCT018 SCT080 PROB30 TEMPO 2619/2622 7000-TSRA FEW015CB BECMG 2702/2706 33004KT SCT015=

AEROPUERTO INTL. DE TOCUMEN:

TAF MPPA 262230Z 2700/2806 00000KT 9999 SCT018 PROB30 TEMPO 2704/2708 FEW013CB BECMG 2714/2718 33008KT 8000 RA=



TAF:

TAF MPTO 262230Z 2700/2806 00000KT 9999 SCT017 PROB30 TEMPO 2704/2708 FEW013CB BECMG 2714/2718 03010KT 8000 TSRA=


 
 























  Noticias AAC
  Directorio
  Contáctenos
  Historia
  Quejas y Sugerencias
  Etica y Transparencia

  Gestión SSP/SMS
  Seguridad Aérea
  Navegación Aérea
  Transporte Aéreo

  Tramites
  Áeronaves de Alquiler

  Meteorología
  I.S.F.P.A
  Notam
  Peligro Aviario
  AVSEC
  UPIA
  Permisos
 




DECLARACIÓN DE PRIVACIDAD